Date,TemperatureHighF,TemperatureAvgF,TemperatureLowF,DewpointHighF,DewpointAvgF,DewpointLowF,HumidityHigh,HumidityAvg,HumidityLow,PressureMaxIn,PressureMinIn,WindSpeedMaxMPH,WindSpeedAvgMPH,GustSpeedMaxMPH,PrecipitationSumIn
2013-1-1,43,38,31,33,31,28,91,75,65,30.01,29.90,5,0,8,0.00
2013-1-2,36,31,26,30,22,18,80,68,54,30.22,29.99,5,1,8,0.00
2013-1-3,36,27,20,22,20,17,90,75,51,30.25,30.14,2,0,6,0.00
2013-1-4,40,33,24,26,24,22,91,69,52,30.19,30.09,4,1,12,0.00
2013-1-5,41,35,31,29,25,23,82,68,54,30.36,30.13,5,0,8,0.00
2013-1-6,46,37,27,34,31,26,98,80,56,30.18,30.02,5,0,6,0.00
2013-1-7,43,38,25,33,29,23,92,71,57,30.42,30.13,4,0,9,0.00
2013-1-8,52,35,24,36,29,22,97,81,48,30.42,30.35,1,0,5,0.00
2013-1-9,49,38,27,43,35,26,97,88,70,30.38,30.23,1,0,6,0.01
2013-1-10,51,44,36,35,32,29,82,64,47,30.58,30.37,4,0,8,0.00
2013-1-11,45,40,33,42,36,30,98,88,72,30.48,30.09,1,0,4,0.07
2013-1-12,56,46,41,50,44,41,99,94,80,30.16,30.09,1,0,4,0.00
2013-1-13,50,46,41,50,46,40,100,99,97,30.12,29.97,1,0,4,0.01
2013-1-14,58,52,40,58,48,37,100,88,66,30.29,29.94,3,0,6,0.14
2013-1-15,40,38,34,38,37,34,98,97,94,30.33,30.17,2,0,5,0.59
2013-1-16,39,36,34,38,36,33,99,98,97,30.15,29.85,4,0,10,0.42
2013-1-17,42,39,37,38,34,32,98,85,67,30.12,29.97,5,0,6,0.00
2013-1-18,36,31,25,32,22,13,87,68,43,30.48,30.03,6,1,13,0.00
2013-1-19,52,39,27,32,29,22,86,68,47,30.40,29.96,1,0,6,0.00
2013-1-20,56,42,31,34,26,16,87,56,27,30.07,29.81,6,1,13,0.00
2013-1-21,39,32,28,29,22,14,77,65,49,30.09,29.80,4,1,15,0.00
2013-1-22,27,19,15,14,2,-2,58,47,38,30.29,29.94,9,2,15,0.00
2013-1-23,24,18,12,7,4,2,71,53,40,30.35,30.16,5,0,11,0.00
2013-1-24,24,19,11,16,10,4,90,70,41,30.51,30.10,6,1,15,0.00
2013-1-25,23,18,12,17,11,6,92,76,53,30.51,30.08,1,0,5,0.00
2013-1-26,32,24,18,23,19,15,92,82,66,30.43,30.09,4,0,9,0.05
2013-1-27,35,24,15,23,19,13,93,80,57,30.60,30.44,1,0,7,0.02
2013-1-28,42,33,26,41,32,23,99,94,82,30.50,30.04,0,0,4,0.15
2013-1-29,66,47,34,56,44,33,100,91,70,30.13,29.98,1,0,4,0.01
2013-1-30,68,57,46,63,56,45,99,95,77,29.96,29.26,3,0,10,1.64
2013-1-31,60,42,27,60,31,14,99,66,43,29.89,29.14,8,2,20,0.43
2013-2-1,29,25,19,26,14,7,92,64,46,30.36,29.81,8,2,18,0.00
2013-2-2,28,22,15,26,15,8,94,75,50,30.38,30.03,2,0,5,0.00
2013-2-3,32,28,21,30,25,19,97,90,74,30.00,29.83,7,0,10,0.04
2013-2-4,36,29,23,24,19,14,82,66,52,30.10,29.90,6,1,12,0.00
2013-2-5,38,33,29,30,28,24,90,81,71,29.94,29.85,1,0,4,0.00
2013-2-6,41,35,28,31,28,23,94,77,58,30.34,29.94,6,1,11,0.00
2013-2-7,37,31,23,30,25,21,92,79,65,30.45,30.21,5,0,7,0.00
2013-2-8,39,36,33,38,33,25,98,90,71,30.21,29.75,9,1,18,0.17
2013-2-9,38,31,25,26,20,18,81,65,47,30.38,29.92,9,3,19,0.00
2013-2-10,43,32,19,27,20,17,92,64,36,30.48,30.26,4,0,7,0.00
2013-2-11,50,42,34,50,41,28,100,95,66,30.24,29.69,2,0,9,0.34
2013-2-12,52,45,35,37,32,29,85,62,43,29.98,29.79,13,1,13,0.00
2013-2-13,45,35,27,36,30,25,97,85,63,29.95,29.66,2,0,5,0.10
2013-2-14,33,33,32,33,32,31,98,97,97,29.89,29.76,0,0,0,0.01
2013-2-15,57,44,29,39,35,28,97,73,43,30.03,29.89,6,1,10,0.12
2013-2-16,36,34,31,33,30,20,98,85,62,30.00,29.82,4,1,8,0.01
2013-2-17,31,27,23,21,15,10,73,61,49,30.17,29.82,8,3,19,0.00
2013-2-18,40,29,20,20,13,9,67,53,32,30.37,30.17,5,1,11,0.00
2013-2-19,43,37,28,41,31,20,96,82,61,30.16,29.71,5,0,12,0.14
2013-2-20,37,31,24,25,18,12,66,59,51,30.14,29.83,7,3,16,0.00
2013-2-21,36,29,23,21,17,13,74,60,49,30.32,30.11,7,2,14,0.00
2013-2-22,33,30,28,30,24,19,95,78,68,30.38,30.23,2,0,5,0.01
2013-2-23,45,38,31,44,37,30,99,98,95,30.21,29.81,1,0,4,0.03
2013-2-24,48,40,31,41,33,23,99,77,48,30.09,29.78,9,2,20,0.00
2013-2-25,45,35,25,28,25,22,88,69,48,30.21,30.09,4,0,7,0.00
2013-2-26,42,35,27,42,33,24,98,91,76,30.22,29.63,6,1,13,0.56
2013-2-27,55,45,39,43,40,36,99,83,56,29.68,29.51,5,1,11,0.06
2013-2-28,45,41,38,39,33,28,94,73,50,29.71,29.62,6,1,12,0.01
2013-3-1,42,40,34,33,30,27,81,70,58,29.86,29.70,5,1,11,0.00
2013-3-2,36,32,27,26,24,21,89,73,60,29.87,29.80,4,1,11,0.00
2013-3-3,38,33,30,24,22,20,76,65,53,29.90,29.79,5,2,13,0.00
2013-3-4,40,33,27,22,20,16,68,58,45,30.02,29.90,10,2,14,0.00
2013-3-5,47,37,26,31,22,15,86,58,27,30.07,29.83,3,0,7,0.00
2013-3-6,38,35,33,35,33,30,97,93,74,29.98,29.63,8,3,13,0.65
2013-3-7,47,40,34,33,30,28,86,69,51,30.13,29.98,6,2,12,0.06
2013-3-8,46,40,34,31,29,26,82,64,53,30.26,30.11,8,2,14,0.00
2013-3-9,59,44,33,31,27,24,83,55,29,30.34,30.23,2,1,7,0.00
2013-3-10,63,45,29,34,26,20,89,54,20,30.32,30.21,4,0,7,0.00
2013-3-11,60,50,40,50,44,31,95,82,63,30.24,29.95,2,0,7,0.00
2013-3-12,56,51,40,55,47,33,99,85,64,29.93,29.70,6,1,12,1.03
2013-3-13,48,40,30,34,28,22,95,66,37,30.04,29.88,6,1,12,0.00
2013-3-14,42,36,31,22,19,16,69,51,35,30.10,30.01,12,3,21,0.00
2013-3-15,55,42,25,36,27,21,92,59,35,30.07,29.77,4,0,7,0.00
2013-3-16,53,45,38,39,36,34,87,73,58,29.91,29.64,5,1,7,0.00
2013-3-17,40,37,34,34,30,27,92,77,62,30.26,29.91,5,1,8,0.00
2013-3-18,37,36,34,35,29,21,97,79,57,30.32,29.89,4,0,6,0.35
2013-3-19,57,44,36,41,31,14,99,69,24,29.89,29.70,5,1,14,0.00
2013-3-20,51,41,30,27,21,17,78,47,26,29.97,29.76,5,1,14,0.00
2013-3-21,38,33,27,29,18,11,89,56,38,29.88,29.74,9,2,13,0.00
2013-3-22,44,34,26,23,19,13,67,55,39,29.99,29.86,5,1,12,0.00
2013-3-23,50,38,25,26,24,21,90,62,38,30.02,29.91,6,1,12,0.00
2013-3-24,42,35,27,32,26,23,92,69,48,29.99,29.67,2,0,5,0.00
2013-3-25,37,34,32,35,33,32,97,95,90,29.68,29.51,1,0,5,0.45
2013-3-26,48,40,31,35,32,28,98,77,45,29.97,29.69,6,1,10,0.10
2013-3-27,48,42,36,34,30,27,78,64,48,30.09,29.96,6,2,18,0.00
2013-3-28,48,41,31,34,31,27,91,67,46,30.20,30.07,7,2,12,0.00
2013-3-29,54,46,37,34,31,28,80,58,38,30.23,30.12,5,1,11,0.00
2013-3-30,38,34,30,34,30,28,93,88,81,30.21,30.16,2,0,4,0.00
2013-3-31,51,48,40,50,44,33,97,88,75,30.01,29.73,0,0,2,0.03
2013-4-1,64,47,36,47,37,25,99,70,44,29.96,29.72,8,1,14,0.00
2013-4-2,46,37,28,25,21,16,85,56,32,30.16,29.98,5,1,12,0.00
2013-4-3,49,37,25,24,20,14,89,55,26,30.37,30.18,10,2,16,0.00
2013-4-4,49,38,22,36,20,15,92,54,26,30.41,30.09,5,0,7,0.00
2013-4-5,64,48,37,40,32,24,97,62,28,30.09,29.80,5,1,12,0.12
2013-4-6,56,45,34,27,24,21,67,44,27,30.31,30.03,5,1,8,0.00
2013-4-7,70,53,36,43,37,30,87,57,35,30.27,29.96,2,0,8,0.00
2013-4-8,59,55,50,45,44,43,79,66,56,30.01,29.99,0,0,1,0.00
2013-4-9,85,74,54,57,55,50,87,55,35,30.05,29.90,7,1,11,0.00
2013-4-10,91,76,58,60,56,53,83,54,34,29.94,29.74,5,0,9,0.00
2013-4-11,86,69,55,64,58,52,94,71,43,29.86,29.72,5,1,7,0.00
2013-4-12,67,56,51,63,55,50,99,96,84,29.80,29.57,3,1,7,0.46
2013-4-13,67,54,41,50,43,39,99,71,39,29.93,29.76,5,1,11,0.02
2013-4-14,64,53,40,45,40,36,93,65,35,30.12,29.93,10,1,11,0.00
2013-4-15,62,56,52,51,49,44,95,79,66,30.27,30.11,2,0,5,0.02
2013-4-16,75,62,53,60,55,49,90,78,59,30.30,30.08,5,0,7,0.00
2013-4-17,73,65,56,63,59,55,99,83,69,30.21,30.10,5,1,7,0.01
2013-4-18,74,63,57,65,59,54,99,88,71,30.21,29.99,1,0,5,0.05
2013-4-19,77,65,52,68,62,50,98,89,71,29.98,29.57,1,0,9,0.01
2013-4-20,58,51,44,50,36,30,95,58,37,30.32,29.77,6,1,11,0.00
2013-4-21,53,45,36,36,28,24,78,53,32,30.58,30.34,5,1,7,0.00
2013-4-22,55,46,35,38,36,33,94,71,52,30.57,30.40,6,1,7,0.00
2013-4-23,60,50,45,45,42,38,88,75,55,30.41,30.12,2,0,5,0.00
2013-4-24,77,60,44,59,51,42,97,75,47,30.11,29.77,6,0,11,0.00
2013-4-25,62,53,44,48,37,31,81,56,31,30.29,29.98,5,1,14,0.00
2013-4-26,63,52,40,43,38,34,94,65,36,30.44,30.29,4,0,6,0.00
2013-4-27,69,55,39,45,40,37,95,63,33,30.42,30.27,2,0,5,0.00
2013-4-28,66,55,43,51,44,40,95,69,38,30.28,30.13,2,0,6,0.00
2013-4-29,58,55,52,57,53,45,99,95,71,30.15,30.04,0,0,2,0.00
2013-4-30,58,56,51,57,55,50,99,98,95,30.27,30.08,1,0,2,0.00
2013-5-1,67,56,43,51,45,40,98,70,40,30.41,30.28,1,0,5,0.00
2013-5-2,66,55,42,52,47,40,98,78,48,30.43,30.30,1,0,5,0.00
2013-5-3,65,54,44,48,45,43,98,74,51,30.37,30.30,2,0,5,0.00
2013-5-4,65,55,45,50,45,42,93,73,48,30.33,30.17,2,0,5,0.00
2013-5-5,60,52,44,48,44,42,93,77,56,30.23,30.14,2,0,4,0.00
2013-5-6,60,54,45,58,51,43,97,91,88,30.17,30.05,2,0,4,0.00
2013-5-7,61,59,57,61,58,56,100,99,97,30.07,29.93,1,0,4,0.00
2013-5-8,67,60,56,61,58,55,100,93,66,29.98,29.91,2,0,5,0.00
2013-5-9,71,61,53,62,58,53,99,88,67,29.98,29.90,0,0,4,0.00
2013-5-10,80,67,53,65,60,52,99,81,53,29.99,29.84,2,0,6,0.00
2013-5-11,73,65,62,69,64,62,100,97,78,29.89,29.70,0,0,5,0.00
2013-5-12,63,57,48,62,45,34,99,67,37,30.01,29.73,2,0,8,0.00
2013-5-13,57,49,40,41,35,26,91,63,31,30.14,30.01,5,0,9,0.00
2013-5-14,60,49,35,48,38,32,94,68,36,30.20,30.05,3,0,6,0.00
2013-5-15,77,63,53,66,57,47,95,81,67,30.04,29.67,1,0,5,0.00
2013-5-16,76,69,63,66,63,60,92,82,69,29.89,29.73,0,0,5,0.00
2013-5-17,79,68,56,60,56,48,97,68,38,30.13,29.91,0,0,0,0.00
2013-5-18,64,61,58,59,57,55,96,87,79,30.22,30.13,0,0,0,0.00
2013-5-19,68,63,58,66,62,58,99,97,92,30.19,30.08,0,0,0,0.00
2013-5-20,76,69,64,71,67,64,99,94,83,30.09,29.96,0,0,0,0.00
2013-5-21,79,71,64,73,68,64,99,91,80,29.98,29.85,0,0,0,0.00
2013-5-22,83,74,67,75,70,66,99,88,74,29.91,29.80,0,0,0,0.00
2013-5-23,67,66,64,66,64,64,99,97,95,29.88,29.75,0,0,0,0.08
2013-5-24,64,56,48,64,51,36,100,86,62,30.13,29.72,2,0,8,0.00
2013-5-25,62,53,44,47,40,37,82,65,45,30.15,30.06,4,0,8,0.00
2013-5-26,68,57,47,50,43,39,85,62,36,30.20,30.11,1,0,6,0.00
2013-5-27,67,58,46,56,49,43,92,75,49,30.27,30.17,0,0,0,0.00
2013-5-28,74,63,56,69,61,53,99,93,86,30.18,30.05,1,0,4,0.57
2013-5-29,80,72,64,74,69,63,100,91,76,30.10,30.05,0,0,1,0.00
2013-5-30,85,75,65,74,69,64,98,84,61,30.15,30.08,0,0,0,0.00
2013-5-31,84,75,65,72,68,63,98,80,58,30.13,30.00,1,0,2,0.00
2013-6-1,85,76,66,74,69,64,94,81,66,30.01,29.89,0,0,1,0.00
2013-6-2,78,74,68,75,69,66,99,86,76,29.89,29.81,0,0,4,0.75
2013-6-3,73,69,64,71,68,60,100,97,82,29.92,29.80,0,0,4,0.29
2013-6-4,70,64,56,61,54,49,89,73,48,30.11,29.93,1,0,4,0.00
2013-6-5,74,64,53,63,58,52,97,81,61,30.17,30.04,0,0,2,0.00
2013-6-6,69,64,60,65,61,57,99,90,82,30.07,29.86,0,0,4,0.28
2013-6-7,69,67,64,69,67,64,100,100,99,29.85,29.57,1,0,4,1.35
2013-6-8,73,67,63,68,65,63,100,93,80,30.06,29.67,0,0,2,0.01
2013-6-9,75,68,62,71,66,61,99,91,79,30.18,30.08,0,0,0,0.00
2013-6-10,74,70,68,74,70,67,100,99,92,30.09,29.77,0,0,5,1.56
2013-6-11,76,70,66,71,68,66,100,94,83,29.82,29.76,1,0,5,0.01
2013-6-12,80,72,64,74,69,64,99,91,76,29.84,29.77,0,0,4,0.00
2013-6-13,80,71,65,73,69,62,99,94,77,29.80,29.43,0,0,4,0.45
2013-6-14,73,66,58,64,59,54,95,81,66,29.94,29.57,2,0,5,0.00
2013-6-15,76,68,59,65,62,58,96,82,59,30.05,29.95,0,0,4,0.00
2013-6-16,78,69,61,70,65,58,96,87,74,30.01,29.86,0,0,2,0.00
2013-6-17,81,74,66,74,69,64,94,86,73,29.94,29.86,0,0,2,0.00
2013-6-18,73,70,64,73,69,64,99,98,94,29.90,29.78,0,0,2,0.06
2013-6-19,71,66,62,66,64,60,100,93,81,30.13,29.86,0,0,2,0.01
2013-6-20,74,67,59,67,63,58,99,88,72,30.25,30.14,0,0,1,0.00
2013-6-21,76,66,56,64,59,54,96,78,51,30.29,30.21,0,0,2,0.00
2013-6-22,81,71,60,71,66,59,99,85,69,30.24,30.11,0,0,1,0.00
2013-6-23,77,71,65,75,70,64,99,95,89,30.18,30.05,0,0,0,0.25
2013-6-24,84,73,68,78,71,67,100,93,73,30.10,30.00,0,0,1,0.02
2013-6-25,83,75,66,78,72,66,100,90,77,30.02,29.87,0,0,1,0.08
2013-6-26,81,72,66,77,71,66,100,96,85,29.89,29.79,0,0,0,0.11
2013-6-27,78,73,68,77,72,67,100,97,91,29.81,29.59,0,0,0,0.11
2013-6-28,79,73,68,75,71,68,100,95,83,29.61,29.47,0,0,0,0.00
2013-6-29,80,73,66,72,69,65,100,87,68,29.67,29.51,0,0,0,0.00
2013-6-30,80,74,69,76,73,68,99,95,84,29.83,29.68,0,0,0,0.00
2013-7-1,76,74,70,75,73,70,100,99,96,29.96,29.82,0,0,0,0.09
2013-7-2,77,74,72,75,73,72,100,98,93,30.15,29.96,0,0,0,0.02
2013-7-3,78,74,71,77,74,70,100,99,97,30.22,30.15,0,0,0,0.32
2013-7-4,82,76,72,77,74,72,100,94,85,30.23,30.14,0,0,0,0.00
2013-7-5,83,77,72,77,74,71,99,90,80,30.20,30.10,0,0,0,0.00
2013-7-6,85,78,72,78,74,71,99,90,75,30.17,30.04,0,0,0,0.00
2013-7-7,84,76,69,78,73,69,99,91,76,30.09,29.97,0,0,0,0.14
2013-7-8,78,73,69,74,71,69,100,96,83,30.09,30.02,0,0,0,0.04
2013-7-9,77,74,70,76,73,69,99,97,91,30.08,29.98,0,0,0,0.00
2013-7-10,81,76,73,78,75,72,100,95,86,29.98,29.84,0,0,0,0.00
2013-7-11,78,74,72,74,72,71,100,95,88,29.90,29.82,0,0,0,0.27
2013-7-12,73,71,67,72,70,66,99,98,97,29.92,29.88,0,0,0,0.29
2013-7-13,78,74,69,76,73,69,100,98,92,30.26,30.05,0,0,0,0.08
2013-7-14,82,76,72,78,75,72,100,96,84,30.32,30.25,0,0,0,0.00
2013-7-15,85,78,70,79,75,70,100,92,78,30.28,30.17,0,0,0,0.00
2013-7-16,85,79,74,78,75,72,98,87,73,30.22,30.14,0,0,0,0.00
2013-7-17,86,79,72,78,75,72,98,88,73,30.19,30.07,0,0,0,0.00
2013-7-18,88,80,74,82,77,73,98,91,75,30.10,29.98,0,0,0,0.00
2013-7-19,88,80,75,82,77,73,99,91,78,29.99,29.85,0,0,0,0.00
2013-7-20,86,78,71,78,75,70,98,90,76,29.87,29.77,0,0,0,0.00
2013-7-21,83,75,70,78,73,70,99,94,78,29.92,29.86,0,0,0,0.00
2013-7-22,82,76,72,78,74,71,99,94,84,29.91,29.74,0,0,0,0.00
2013-7-23,79,74,71,76,72,70,100,94,81,29.75,29.62,0,0,0,0.00
2013-7-24,78,72,68,71,69,64,98,90,78,29.90,29.66,0,0,0,0.00
2013-7-25,73,67,60,66,61,56,94,82,70,30.01,29.90,0,0,0,0.00
2013-7-26,76,68,61,68,64,60,99,87,68,30.07,30.00,0,0,0,0.00
2013-7-27,79,70,64,73,68,63,99,94,81,30.04,29.90,0,0,0,0.00
2013-7-28,76,71,68,73,70,67,100,97,90,29.97,29.88,0,0,11,0.00
2013-7-29,74,67,62,67,63,60,99,89,63,30.14,29.96,0,0,0,0.00
2013-7-30,74,67,59,68,63,58,98,87,70,30.21,30.13,0,0,0,0.00
2013-7-31,74,69,64,71,67,62,99,93,86,30.14,30.01,0,0,0,0.00
2013-8-1,75,71,67,73,70,66,100,98,93,30.00,29.79,0,0,0,0.00
2013-8-2,78,72,66,72,69,65,98,91,77,29.95,29.83,0,0,0,0.00
2013-8-3,71,67,66,70,66,64,99,97,85,29.95,29.90,0,0,1,0.09
2013-8-4,74,67,62,66,63,59,99,86,65,30.00,29.89,0,0,0,0.00
2013-8-5,73,65,57,64,60,56,97,85,65,30.09,30.00,0,0,0,0.00
2013-8-6,69,66,63,69,65,62,100,98,93,30.06,30.00,0,0,0,0.15
2013-8-7,76,71,66,74,70,66,100,98,93,30.06,29.98,0,0,0,0.05
2013-8-8,78,73,70,77,73,70,100,98,93,30.03,29.96,0,0,1,0.15
2013-8-9,80,76,73,78,75,73,99,97,91,29.96,29.83,0,0,0,0.02
2013-8-10,73,73,72,72,72,71,97,96,96,29.96,29.92,0,0,0,0.00
2013-8-11,78,74,68,72,70,67,97,89,78,30.10,29.99,0,0,0,0.00
2013-8-12,80,73,67,74,70,66,97,90,79,30.01,29.90,0,0,0,0.00
2013-8-13,77,73,71,72,71,69,96,93,84,29.89,29.72,0,0,0,0.04
2013-8-14,70,66,59,67,58,52,92,76,61,30.07,29.79,2,0,6,0.00
2013-8-15,71,62,54,61,56,52,95,80,52,30.17,30.08,0,0,2,0.00
2013-8-16,72,63,55,64,58,53,96,85,67,30.18,30.12,0,0,2,0.00
2013-8-17,73,65,56,65,60,54,95,84,70,30.25,30.19,0,0,0,0.00
2013-8-18,69,66,64,65,63,62,95,91,84,30.22,30.15,0,0,1,0.00
2013-8-19,72,66,61,68,64,59,96,92,87,30.17,30.05,0,0,0,0.00
2013-8-20,80,70,62,71,66,60,96,88,73,30.15,30.07,0,0,0,0.00
2013-8-21,81,73,66,75,70,64,96,90,77,30.18,30.06,0,0,0,0.00
2013-8-22,81,75,69,73,70,67,95,87,71,30.06,29.91,0,0,0,0.00
2013-8-23,72,68,63,69,66,61,94,92,87,30.09,29.91,0,0,0,0.00
2013-8-24,76,67,60,66,61,57,94,83,65,30.31,30.11,0,0,0,0.01
2013-8-25,76,66,57,64,60,55,95,82,59,30.40,30.25,0,0,0,0.00
2013-8-26,80,69,59,70,63,57,93,84,67,30.27,29.99,0,0,0,0.00
2013-8-27,82,74,68,75,70,66,92,87,76,29.98,29.86,0,0,0,0.00
2013-8-28,74,72,70,72,70,68,95,93,91,29.89,29.81,0,0,0,0.28
2013-8-29,77,72,69,73,70,67,95,92,83,30.00,29.81,0,0,0,0.01
2013-8-30,80,73,69,74,70,67,94,89,79,30.02,29.87,0,0,0,0.00
2013-8-31,83,75,69,76,71,66,94,88,77,29.89,29.78,0,0,0,0.00
2013-9-1,84,76,68,76,71,66,94,87,73,29.83,29.73,0,0,0,0.00
2013-9-2,83,76,69,75,71,67,93,86,74,29.78,29.70,0,0,0,0.00
2013-9-3,78,73,66,71,66,60,93,80,63,29.93,29.71,0,0,0,0.00
2013-9-4,76,66,57,63,58,54,91,77,48,30.06,29.93,0,0,0,0.00
2013-9-5,77,67,58,66,61,55,94,80,62,30.11,30.00,1,0,4,0.00
2013-9-6,70,61,53,57,52,49,89,75,51,30.24,30.12,1,0,4,0.00
2013-9-7,75,63,52,65,58,49,94,83,62,30.13,29.92,1,0,2,0.00
2013-9-8,80,70,62,70,65,59,93,84,67,30.03,29.86,1,0,4,0.00
2013-9-9,74,66,58,67,60,51,89,80,70,30.18,30.04,0,0,2,0.00
2013-9-10,85,76,69,76,71,66,93,86,72,30.16,30.06,0,0,2,0.00
2013-9-11,86,78,71,78,73,68,95,85,70,30.12,29.99,0,0,0,0.00
2013-9-12,83,73,68,76,70,66,95,90,77,29.98,29.72,0,0,4,0.26
2013-9-13,72,67,60,67,61,54,95,82,59,29.91,29.68,2,0,5,0.00
2013-9-14,64,58,51,54,50,48,91,77,59,30.15,29.91,0,0,0,0.00
2013-9-15,71,58,46,60,53,44,95,83,59,30.23,30.08,0,0,0,0.00
2013-9-16,67,61,55,60,58,53,94,88,75,30.21,30.03,0,0,0,0.01
2013-9-17,63,56,47,55,48,43,92,77,48,30.42,30.22,0,0,0,0.00
2013-9-18,66,54,44,54,48,42,95,81,56,30.34,30.19,0,0,0,0.00
2013-9-19,72,60,48,62,55,46,95,84,66,30.20,30.07,0,0,0,0.00
2013-9-20,75,64,54,65,59,52,95,85,68,30.08,29.95,0,0,0,0.00
2013-9-21,71,64,59,65,61,57,95,91,79,29.97,29.67,0,0,0,0.17
2013-9-22,66,61,54,61,57,51,95,87,70,29.93,29.71,0,0,0,0.14
2013-9-23,62,55,49,53,49,46,93,81,62,30.08,29.94,0,0,0,0.02
2013-9-24,65,54,43,57,48,41,95,83,61,30.10,29.94,0,0,0,0.00
2013-9-25,70,60,47,56,51,45,94,75,47,29.97,29.87,0,0,0,0.02
2013-9-26,69,59,52,58,54,50,94,83,63,30.06,29.92,0,0,0,0.01
2013-9-27,67,60,53,60,56,50,94,88,78,30.23,30.06,0,0,0,0.02
2013-9-28,65,59,54,58,55,52,94,87,74,30.30,30.22,0,0,0,0.01
2013-9-29,67,57,48,59,53,46,95,87,73,30.21,30.05,0,0,0,0.00
2013-9-30,69,58,49,60,53,47,95,85,65,30.09,29.97,0,0,0,0.01
2013-10-1,76,64,53,64,58,51,94,83,62,30.06,29.95,0,0,0,0.00
2013-10-2,79,66,56,66,60,54,94,82,62,30.07,29.98,0,0,0,0.00
2013-10-3,76,64,58,68,61,56,93,89,77,30.10,30.04,0,0,0,0.00
2013-10-4,81,69,59,70,64,57,95,84,69,30.07,29.99,0,0,0,0.00
2013-10-5,82,72,63,71,66,60,94,83,64,30.07,29.98,0,0,0,0.00
2013-10-6,83,73,64,72,67,62,94,83,63,30.01,29.90,0,0,0,0.00
2013-10-7,72,65,56,69,62,49,94,90,78,30.02,29.76,1,0,8,0.42
2013-10-8,64,55,47,53,49,45,95,82,63,30.27,30.03,1,0,4,0.00
2013-10-9,59,54,51,53,51,48,94,87,79,30.31,30.21,1,0,4,0.07
2013-10-10,58,55,52,56,53,50,96,95,91,30.20,29.99,2,0,4,1.37
2013-10-11,61,59,56,60,58,55,96,96,95,29.99,29.92,2,0,4,1.43
2013-10-12,64,61,60,60,59,58,96,93,86,30.15,29.97,2,0,4,0.00
2013-10-13,61,58,55,58,56,53,95,93,88,30.32,30.15,1,0,4,0.00
2013-10-14,65,58,53,58,54,51,93,88,75,30.33,30.21,1,0,4,0.00
2013-10-15,67,57,50,56,51,49,95,82,54,30.23,30.08,0,0,2,0.00
2013-10-16,68,62,56,63,59,53,93,90,84,30.07,29.91,0,0,0,0.00
2013-10-17,72,65,58,66,61,56,94,89,78,29.89,29.70,2,0,5,0.09
2013-10-18,62,55,47,57,48,45,91,79,57,30.00,29.80,2,0,6,0.01
2013-10-19,63,54,45,57,50,43,94,88,68,29.99,29.77,1,0,4,0.01
2013-10-20,59,51,44,50,42,40,89,73,50,30.09,29.84,3,0,9,0.00
2013-10-21,64,51,40,49,43,38,95,78,43,30.14,29.96,1,0,4,0.00
2013-10-22,60,52,45,52,47,42,94,85,71,29.95,29.81,2,0,2,0.00
2013-10-23,55,48,44,44,40,38,85,73,54,29.86,29.65,2,0,6,0.00
2013-10-24,49,43,38,38,34,29,89,72,47,30.12,29.88,4,0,10,0.00
2013-10-25,52,43,35,37,34,32,88,74,53,30.31,30.12,4,0,9,0.00
2013-10-26,54,43,31,38,34,29,93,72,47,30.30,29.94,2,0,5,0.00
2013-10-27,57,47,37,42,38,34,90,72,49,30.14,29.95,2,0,5,0.00
2013-10-28,61,46,35,46,39,33,94,79,48,30.28,30.14,1,0,4,0.00
2013-10-29,61,48,39,48,42,36,92,81,56,30.37,30.27,1,0,4,0.00
2013-10-30,65,54,46,58,51,44,95,89,74,30.33,30.13,1,0,4,0.00
2013-10-31,66,60,53,61,57,51,95,90,83,30.18,29.78,1,0,4,0.01
2013-11-1,69,64,55,64,60,53,94,87,75,29.74,29.56,3,0,6,0.00
2013-11-2,65,56,48,54,48,42,94,77,51,29.86,29.63,5,0,7,0.00
2013-11-3,53,47,38,43,36,26,89,68,37,30.44,29.86,4,1,8,0.00
2013-11-4,45,37,30,30,26,23,84,66,43,30.62,30.45,1,0,6,0.00
2013-11-5,56,50,36,48,43,33,88,79,69,30.61,30.47,0,0,4,0.00
2013-11-6,66,55,43,54,50,41,94,83,65,30.45,30.06,5,0,5,0.00
2013-11-7,60,53,43,56,47,28,93,82,55,30.05,29.86,7,1,14,0.00
2013-11-8,48,41,33,34,30,27,91,68,44,30.30,30.05,4,0,11,0.00
2013-11-9,52,41,28,36,31,26,92,68,44,30.34,30.03,2,0,5,0.00
2013-11-10,60,46,35,39,33,30,90,62,36,30.20,29.94,5,1,12,0.00
2013-11-11,56,46,36,35,33,31,85,62,40,30.29,29.99,2,0,5,0.00
2013-11-12,48,39,29,40,28,18,80,63,48,30.38,29.96,6,1,9,0.00
2013-11-13,40,32,27,25,23,21,86,69,47,30.46,30.37,6,1,9,0.00
2013-11-14,30,26,24,24,23,22,89,87,81,30.36,30.32,0,0,2,0.00
2013-11-15,59,46,28,42,32,25,91,61,31,30.27,30.19,1,0,2,0.00
2013-11-16,52,48,42,49,46,41,96,92,88,30.31,30.22,0,0,2,0.00
2013-11-17,62,56,50,58,54,48,96,92,85,30.22,29.75,1,0,4,0.00
2013-11-18,65,57,49,60,42,28,95,61,26,29.91,29.67,4,1,10,0.00
2013-11-19,48,42,34,31,29,27,83,60,47,30.35,29.91,5,1,13,0.00
2013-11-20,44,34,29,28,26,23,90,73,46,30.56,30.35,2,0,5,0.00
2013-11-21,49,39,27,40,34,25,91,81,69,30.57,30.39,2,0,4,0.00
2013-11-22,60,52,44,52,48,40,93,85,73,30.34,30.00,1,0,9,0.00
2013-11-23,54,42,31,49,29,14,83,60,43,30.16,30.02,7,2,14,0.00
2013-11-24,30,26,22,15,11,8,71,53,39,30.51,30.18,8,3,15,0.00
2013-11-25,36,27,20,18,13,9,74,56,34,30.57,30.35,1,0,5,0.00
2013-11-26,44,35,33,43,29,18,96,80,51,30.34,29.59,2,0,5,0.00
2013-11-27,40,37,29,39,32,18,95,86,64,29.99,29.50,7,2,20,0.00
2013-11-28,35,30,26,25,19,15,86,66,44,30.47,30.01,7,2,12,0.00
2013-11-29,39,30,21,26,22,19,93,75,51,30.72,30.46,5,1,10,0.00
2013-11-30,36,29,21,27,22,18,91,77,55,30.71,30.39,1,0,5,0.00
2013-12-1,46,34,22,34,28,21,94,80,57,30.37,30.02,1,0,4,0.00
2013-12-2,48,42,38,39,36,34,89,82,64,30.00,29.86,1,0,2,0.00
2013-12-3,55,43,36,41,37,34,92,81,57,29.98,29.87,1,0,4,0.00
2013-12-4,54,45,34,48,42,32,95,88,79,30.08,29.99,1,0,2,0.00
2013-12-5,67,58,50,61,54,47,95,90,78,30.07,29.91,1,0,6,0.00
2013-12-6,63,50,38,61,48,36,95,94,91,30.13,29.86,4,1,8,0.00
2013-12-7,40,36,30,36,31,24,95,83,71,30.53,30.13,5,1,10,0.00
2013-12-8,31,28,26,30,24,21,95,87,75,30.57,30.31,3,0,4,0.00
2013-12-9,34,33,31,33,32,29,96,95,94,30.29,30.03,1,0,2,0.00
2013-12-10,35,32,27,32,30,22,96,91,74,30.20,29.98,3,0,5,0.00
2013-12-11,36,27,21,25,22,18,91,80,60,30.39,30.20,1,0,5,0.00
2013-12-12,28,24,17,24,16,11,92,73,51,30.42,30.25,4,1,9,0.00
2013-12-13,38,28,17,26,20,14,88,72,46,30.31,30.22,2,0,8,0.00
2013-12-14,37,34,30,34,30,25,95,87,75,30.32,29.72,2,0,5,0.00
2013-12-15,42,35,30,37,31,25,96,85,71,29.93,29.63,6,1,14,0.00
2013-12-16,35,32,30,28,25,22,83,75,69,30.19,29.93,2,1,10,0.00
2013-12-17,36,33,31,32,29,27,93,87,82,30.16,29.94,1,0,4,0.00
2013-12-18,37,31,24,29,25,22,94,78,57,30.21,29.97,5,1,12,0.00
2013-12-19,52,35,24,35,28,22,93,79,49,30.20,30.07,1,0,4,0.00
2013-12-20,55,45,33,45,37,30,91,75,54,30.11,29.99,1,0,2,0.00
2013-12-21,69,58,47,59,52,43,90,81,66,30.01,29.88,1,0,5,0.00
2013-12-22,68,63,60,63,60,57,95,91,86,29.97,29.80,1,0,7,0.00
2013-12-23,61,53,38,60,50,30,96,88,72,30.21,29.90,6,1,11,0.00
2013-12-24,38,32,23,28,22,10,87,67,47,30.46,30.18,6,2,14,0.00
2013-12-25,30,24,19,19,14,11,86,68,51,30.56,30.40,4,0,9,0.00
2013-12-26,42,30,22,27,23,19,92,79,53,30.39,30.22,3,0,8,0.00
2013-12-27,48,33,22,28,24,20,93,73,34,30.42,30.31,1,0,5,0.00
2013-12-28,57,38,25,34,29,23,92,72,35,30.32,30.12,1,0,4,0.00
2013-12-29,46,42,37,45,40,33,96,90,66,30.10,29.52,3,0,6,0.00
2013-12-30,44,37,31,39,32,22,96,82,68,30.17,29.81,8,1,11,0.00
2013-12-31,41,33,25,31,24,20,87,70,49,30.31,30.09,5,0,12,0.00
2014-1-1,44,32,24,31,26,20,92,79,53,30.42,30.15,5,0,5,0.00
2014-1-2,36,32,29,33,30,27,95,93,87,30.13,29.62,2,0,5,0.00